Terminal Aerodrome Forecast
Issued by NWS Atlanta, GA

Home | Current Version | Previous Version | Text Only | Print | Product List | Glossary On
Versions: 1 2 3 4 5 6 7 8 9 10 11 12 13 14 15
201
FTUS42 KFFC 261744
TAFCSG
TAF
KCSG 261744Z 2618/2718 20006KT P6SM SCT040
     FM262000 22006KT P6SM VCSH SCT045
     FM270100 21003KT P6SM FEW050 SCT100
     FM271500 23005KT P6SM SCT040=

USA.gov is the U.S. government's official web portal to all federal, state and local government web resources and services.